Time;durP1;ratioP1;P1;durP2;ratioP2;P2;SDS_P1;SDS_P2;PMS_P1;PMS_P2;Temp;Humidity;BMP_temperature;BMP_pressure;BME280_temperature;BME280_humidity;BME280_pressure;Samples;Min_cycle;Max_cycle;Signal;HPM_P1;HPM_P2
2023/03/13 00:00:43;;;;;;;;;;;;;;;4.95;nan;98572.63;5026532;28;19924;-57
2023/03/13 00:03:09;;;;;;;;;;;;;;;4.94;nan;98567.50;5024591;28;20047;-57
2023/03/13 00:05:35;;;;;;;;;;;;;;;4.87;nan;98578.53;5028579;28;19928;-57
2023/03/13 00:08:00;;;;;;;;;;;;;;;4.86;nan;98564.97;5027316;28;20360;-58
2023/03/13 00:10:27;;;;;;;;;;;;;;;4.85;nan;98564.94;5029864;28;19924;-56
2023/03/13 00:12:53;;;;;;;;;;;;;;;4.93;nan;98570.91;5028590;28;20249;-58
2023/03/13 00:15:18;;;;;;;;;;;;;;;4.93;nan;98565.81;5029222;28;20283;-58
2023/03/13 00:17:44;;;;;;;;;;;;;;;4.94;nan;98565.81;5030872;28;20015;-59
2023/03/13 00:20:10;;;;;;;;;;;;;;;4.94;nan;98547.19;5033124;28;20292;-58
2023/03/13 00:22:35;;;;;;;;;;;;;;;4.85;nan;98550.56;5034351;28;19964;-57
2023/03/13 00:25:01;;;;;;;;;;;;;;;4.86;nan;98533.63;5031226;28;19932;-58
2023/03/13 00:27:26;;;;;;;;;;;;;;;4.78;nan;98532.78;5033568;28;19925;-58
2023/03/13 00:29:52;;;;;;;;;;;;;;;4.80;nan;98536.16;5033859;28;19991;-58
2023/03/13 00:32:18;;;;;;;;;;;;;;;4.73;nan;98527.69;5040209;28;20331;-58
2023/03/13 00:34:43;;;;;;;;;;;;;;;4.72;nan;98525.13;5032578;28;19954;-57
2023/03/13 00:37:09;;;;;;;;;;;;;;;4.71;nan;98526.81;5033869;28;20300;-58
2023/03/13 00:39:34;;;;;;;;;;;;;;;4.86;nan;98521.78;5032136;28;19936;-58
2023/03/13 00:42:02;;;;;;;;;;;;;;;4.86;nan;98515.84;5030965;28;19960;-57
2023/03/13 00:44:28;;;;;;;;;;;;;;;4.89;nan;98516.72;5031913;28;19925;-57
2023/03/13 00:46:54;;;;;;;;;;;;;;;4.85;nan;98512.47;5032764;28;20007;-58
2023/03/13 00:49:20;;;;;;;;;;;;;;;4.92;nan;98500.63;5030367;28;19932;-58
2023/03/13 00:51:45;;;;;;;;;;;;;;;4.82;nan;98501.47;5031969;28;19924;-57
2023/03/13 00:54:11;;;;;;;;;;;;;;;4.82;nan;98504.00;5031257;28;19925;-58
2023/03/13 00:56:36;;;;;;;;;;;;;;;4.76;nan;98506.50;5031218;28;20233;-58
2023/03/13 00:59:02;;;;;;;;;;;;;;;4.70;nan;98506.53;5031748;28;20094;-56
2023/03/13 01:01:29;;;;;;;;;;;;;;;4.62;nan;98498.91;5032643;28;20091;-58
2023/03/13 01:03:56;;;;;;;;;;;;;;;4.50;nan;98506.44;5033543;28;20021;-59
2023/03/13 01:06:23;;;;;;;;;;;;;;;4.40;nan;98504.75;5031347;28;19928;-58
2023/03/13 01:08:49;;;;;;;;;;;;;;;4.43;nan;98502.22;5031356;28;19963;-58
2023/03/13 01:11:15;;;;;;;;;;;;;;;4.45;nan;98503.94;5033057;28;20455;-57
2023/03/13 01:13:41;;;;;;;;;;;;;;;4.43;nan;98495.44;5038382;28;20288;-58
2023/03/13 01:16:11;;;;;;;;;;;;;;;4.32;nan;98496.25;5031974;28;20288;-60
2023/03/13 01:18:37;;;;;;;;;;;;;;;4.39;nan;98493.75;5034011;28;19925;-58
2023/03/13 01:21:03;;;;;;;;;;;;;;;4.33;nan;98475.13;5032213;28;20438;-57
2023/03/13 01:23:29;;;;;;;;;;;;;;;4.21;nan;98487.75;5030669;28;19927;-59
2023/03/13 01:25:55;;;;;;;;;;;;;;;4.17;nan;98479.28;5029646;28;20308;-58
2023/03/13 01:28:20;;;;;;;;;;;;;;;4.12;nan;98481.78;5029659;28;19928;-57
2023/03/13 01:30:47;;;;;;;;;;;;;;;4.08;nan;98477.56;5031559;28;19921;-58
2023/03/13 01:33:12;;;;;;;;;;;;;;;4.08;nan;98479.22;5029471;28;19921;-57
2023/03/13 01:35:39;;;;;;;;;;;;;;;4.04;nan;98480.91;5043948;28;19925;-58
2023/03/13 01:38:07;;;;;;;;;;;;;;;4.07;nan;98472.50;5029598;28;20040;-57
2023/03/13 01:40:42;;;;;;;;;;;;;;;4.02;nan;98469.09;5030484;28;20396;-58
2023/03/13 01:43:19;;;;;;;;;;;;;;;3.94;nan;98476.66;5028476;28;20438;-58
2023/03/13 01:45:48;;;;;;;;;;;;;;;3.83;nan;98467.28;5030934;28;19932;-58
2023/03/13 01:48:14;;;;;;;;;;;;;;;3.74;nan;98468.09;5028383;28;19979;-58
2023/03/13 01:50:46;;;;;;;;;;;;;;;3.65;nan;98471.41;5036772;28;19929;-58
2023/03/13 01:53:20;;;;;;;;;;;;;;;3.58;nan;98459.56;5027535;28;19921;-58
2023/03/13 01:55:46;;;;;;;;;;;;;;;3.44;nan;98466.22;5042893;28;20391;-55
2023/03/13 01:58:12;;;;;;;;;;;;;;;3.40;nan;98459.44;5032108;28;19960;-57
2023/03/13 02:00:38;;;;;;;;;;;;;;;3.36;nan;98462.78;5036554;28;20023;-57
2023/03/13 02:03:13;;;;;;;;;;;;;;;3.33;nan;98462.78;5037245;28;20390;-58
2023/03/13 02:05:41;;;;;;;;;;;;;;;3.23;nan;98456.78;5027989;28;19921;-57
2023/03/13 02:08:10;;;;;;;;;;;;;;;3.33;nan;98465.31;5030259;28;19920;-57
2023/03/13 02:10:42;;;;;;;;;;;;;;;3.31;nan;98466.16;5033580;28;19967;-59
2023/03/13 02:13:12;;;;;;;;;;;;;;;3.45;nan;98460.31;5030807;28;19921;-58
2023/03/13 02:15:39;;;;;;;;;;;;;;;3.48;nan;98462.88;5031987;28;19925;-56
2023/03/13 02:18:05;;;;;;;;;;;;;;;3.55;nan;98467.16;5032111;28;19929;-58
2023/03/13 02:20:31;;;;;;;;;;;;;;;3.60;nan;98462.13;5038034;28;19931;-58
2023/03/13 02:23:08;;;;;;;;;;;;;;;3.59;nan;98452.81;5028416;28;19924;-57
2023/03/13 02:25:34;;;;;;;;;;;;;;;3.56;nan;98448.56;5029645;28;20032;-58
2023/03/13 02:28:02;;;;;;;;;;;;;;;3.46;nan;98449.34;5030113;28;19920;-57
2023/03/13 02:30:30;;;;;;;;;;;;;;;3.42;nan;98447.63;5028770;28;19921;-59
2023/03/13 02:32:56;;;;;;;;;;;;;;;3.38;nan;98442.53;5029359;28;19931;-58
2023/03/13 02:35:22;;;;;;;;;;;;;;;3.35;nan;98450.13;5037516;28;19925;-58
2023/03/13 02:37:50;;;;;;;;;;;;;;;3.33;nan;98446.72;5028578;28;20372;-58
2023/03/13 02:40:23;;;;;;;;;;;;;;;3.31;nan;98451.78;5028268;28;19920;-58
2023/03/13 02:42:50;;;;;;;;;;;;;;;3.46;nan;98453.56;5027264;28;19928;-58
2023/03/13 02:45:16;;;;;;;;;;;;;;;3.62;nan;98461.25;5027551;28;19925;-58
2023/03/13 02:47:43;;;;;;;;;;;;;;;3.64;nan;98458.75;5045005;28;20051;-58
2023/03/13 02:50:10;;;;;;;;;;;;;;;3.59;nan;98453.66;5029218;28;19921;-57
2023/03/13 02:52:40;;;;;;;;;;;;;;;3.56;nan;98458.72;5029948;28;20023;-58
2023/03/13 02:55:17;;;;;;;;;;;;;;;3.60;nan;98465.50;5044053;28;19944;-58
2023/03/13 02:57:43;;;;;;;;;;;;;;;3.62;nan;98473.09;5031930;28;20035;-58
2023/03/13 03:00:11;;;;;;;;;;;;;;;3.59;nan;98468.88;5030574;28;19920;-58
2023/03/13 03:02:39;;;;;;;;;;;;;;;3.60;nan;98472.25;5030312;28;20330;-58
2023/03/13 03:05:04;;;;;;;;;;;;;;;3.58;nan;98477.28;5029544;28;19924;-58
2023/03/13 03:07:31;;;;;;;;;;;;;;;3.59;nan;98468.88;5029142;28;20573;-58
2023/03/13 03:09:56;;;;;;;;;;;;;;;3.57;nan;98472.22;5030849;28;19927;-60
2023/03/13 03:12:22;;;;;;;;;;;;;;;3.55;nan;98476.44;5042519;28;20540;-58
2023/03/13 03:14:47;;;;;;;;;;;;;;;3.55;nan;98472.22;5037388;28;20519;-58
2023/03/13 03:17:13;;;;;;;;;;;;;;;3.52;nan;98474.72;5030174;28;20268;-57
2023/03/13 03:19:38;;;;;;;;;;;;;;;3.49;nan;98466.25;5028757;28;20497;-58
2023/03/13 03:22:04;;;;;;;;;;;;;;;3.45;nan;98467.91;5029376;28;20058;-58
2023/03/13 03:24:31;;;;;;;;;;;;;;;3.43;nan;98471.28;5031912;28;19928;-58
2023/03/13 03:26:56;;;;;;;;;;;;;;;3.36;nan;98475.44;5031345;28;19925;-58
2023/03/13 03:29:27;;;;;;;;;;;;;;;3.32;nan;98476.28;5029987;28;19925;-59
2023/03/13 03:31:53;;;;;;;;;;;;;;;3.32;nan;98477.94;5027694;28;20327;-58
2023/03/13 03:34:19;;;;;;;;;;;;;;;3.24;nan;98475.38;5029262;28;19921;-57
2023/03/13 03:36:45;;;;;;;;;;;;;;;3.18;nan;98475.34;5029822;28;19980;-59
2023/03/13 03:39:11;;;;;;;;;;;;;;;3.22;nan;98474.53;5029240;28;20435;-57
2023/03/13 03:41:36;;;;;;;;;;;;;;;3.17;nan;98468.56;5020638;28;20549;-59
2023/03/13 03:44:03;;;;;;;;;;;;;;;3.20;nan;98479.56;5038252;28;19925;-57
2023/03/13 03:46:38;;;;;;;;;;;;;;;3.20;nan;98476.19;5036854;28;19921;-58
2023/03/13 03:49:04;;;;;;;;;;;;;;;3.16;nan;98477.00;5044965;28;19931;-58
2023/03/13 03:51:29;;;;;;;;;;;;;;;3.12;nan;98471.06;5029419;28;20303;-59
2023/03/13 03:53:54;;;;;;;;;;;;;;;3.12;nan;98470.22;5033332;28;19935;-58
2023/03/13 03:56:20;;;;;;;;;;;;;;;3.07;nan;98471.88;5033529;28;20449;-59
2023/03/13 03:58:51;;;;;;;;;;;;;;;3.07;nan;98477.78;5033315;28;19921;-59
2023/03/13 04:01:35;;;;;;;;;;;;;;;3.07;nan;98470.19;5035547;28;20465;-58
2023/03/13 04:04:02;;;;;;;;;;;;;;;3.27;nan;98475.38;5032995;28;19956;-59
2023/03/13 04:06:28;;;;;;;;;;;;;;;3.28;nan;98472.03;5031905;28;20518;-59
2023/03/13 04:08:54;;;;;;;;;;;;;;;3.26;nan;98478.78;5031800;28;19936;-58
2023/03/13 04:11:22;;;;;;;;;;;;;;;3.32;nan;98483.03;5037276;28;20017;-60
2023/03/13 04:13:51;;;;;;;;;;;;;;;3.26;nan;98478.78;5038870;28;19925;-59
2023/03/13 04:16:17;;;;;;;;;;;;;;;3.17;nan;98483.78;5027876;28;19971;-57
2023/03/13 04:18:44;;;;;;;;;;;;;;;3.17;nan;98486.31;5038463;28;19932;-59
2023/03/13 04:21:10;;;;;;;;;;;;;;;3.16;nan;98487.13;5034778;28;19921;-59
2023/03/13 04:23:43;;;;;;;;;;;;;;;3.15;nan;98480.38;5033138;28;19928;-60
2023/03/13 04:26:10;;;;;;;;;;;;;;;3.22;nan;98479.59;5032860;28;19947;-59
2023/03/13 04:28:37;;;;;;;;;;;;;;;3.17;nan;98474.50;5032907;28;19931;-59
2023/03/13 04:31:05;;;;;;;;;;;;;;;3.22;nan;98480.41;5033503;28;20020;-60
2023/03/13 04:33:39;;;;;;;;;;;;;;;3.27;nan;98482.16;5034270;28;20360;-60
2023/03/13 04:36:25;;;;;;;;;;;;;;;3.23;nan;98477.06;5025372;28;20402;-59
2023/03/13 04:39:06;;;;;;;;;;;;;;;3.28;nan;98474.56;5031896;28;19932;-59
2023/03/13 04:42:04;;;;;;;;;;;;;;;3.35;nan;98472.94;5014563;28;20524;-59
2023/03/13 04:44:44;;;;;;;;;;;;;;;3.34;nan;98467.00;5044864;28;19925;-60
2023/03/13 04:47:29;;;;;;;;;;;;;;;3.47;nan;98461.19;5030753;28;19921;-59
2023/03/13 04:50:21;;;;;;;;;;;;;;;3.42;nan;98460.31;5010338;28;20370;-58
2023/03/13 04:53:14;;;;;;;;;;;;;;;3.38;nan;98458.59;5023773;28;19963;-59
2023/03/13 04:55:47;;;;;;;;;;;;;;;3.33;nan;98446.72;5030027;28;19925;-59
2023/03/13 04:58:31;;;;;;;;;;;;;;;3.32;nan;98448.41;5031675;28;19988;-58
2023/03/13 05:01:09;;;;;;;;;;;;;;;3.30;nan;98451.78;5040043;28;19921;-58
2023/03/13 05:03:52;;;;;;;;;;;;;;;3.26;nan;98438.25;5034316;28;20003;-60
2023/03/13 05:06:36;;;;;;;;;;;;;;;3.25;nan;98441.63;5031685;28;19974;-58
2023/03/13 05:09:29;;;;;;;;;;;;;;;3.21;nan;98447.50;5027386;28;20657;-59
2023/03/13 05:12:09;;;;;;;;;;;;;;;3.32;nan;98440.81;5030555;28;19925;-58
2023/03/13 05:15:04;;;;;;;;;;;;;;;3.31;nan;98433.22;5027356;28;20440;-59
2023/03/13 05:17:49;;;;;;;;;;;;;;;3.33;nan;98441.66;5030812;28;19935;-59
2023/03/13 05:20:24;;;;;;;;;;;;;;;3.34;nan;98428.16;5034142;28;19925;-58
2023/03/13 05:23:10;;;;;;;;;;;;;;;3.37;nan;98426.50;5028088;28;19925;-59
2023/03/13 05:26:05;;;;;;;;;;;;;;;3.40;nan;98426.50;5017463;28;19928;-59
2023/03/13 05:28:53;;;;;;;;;;;;;;;3.45;nan;98434.13;4976857;28;20411;-59
2023/03/13 05:31:25;;;;;;;;;;;;;;;3.45;nan;98432.44;4979715;28;19960;-59
2023/03/13 05:34:17;;;;;;;;;;;;;;;3.49;nan;98430.78;4977765;28;19930;-58
2023/03/13 05:37:03;;;;;;;;;;;;;;;3.46;nan;98436.69;4980143;28;19945;-59
2023/03/13 05:39:48;;;;;;;;;;;;;;;3.50;nan;98430.78;4982590;28;20059;-60
2023/03/13 05:42:45;;;;;;;;;;;;;;;3.57;nan;98429.13;4959957;28;20045;-58
2023/03/13 05:45:21;;;;;;;;;;;;;;;3.64;nan;98431.72;4973095;28;20049;-58
2023/03/13 05:48:13;;;;;;;;;;;;;;;3.74;nan;98431.75;4941812;28;19926;-59
2023/03/13 05:50:59;;;;;;;;;;;;;;;3.80;nan;98424.19;4927762;28;19926;-58
2023/03/13 05:53:48;;;;;;;;;;;;;;;3.94;nan;98414.94;4945553;28;19922;-60
2023/03/13 05:56:41;;;;;;;;;;;;;;;4.03;nan;98405.66;4935842;28;19930;-59
2023/03/13 05:59:25;;;;;;;;;;;;;;;4.05;nan;98409.06;4951995;28;19968;-59
2023/03/13 06:02:14;;;;;;;;;;;;;;;4.11;nan;98404.03;4930702;29;19934;-58
2023/03/13 06:04:43;;;;;;;;;;;;;;;4.26;nan;98408.28;4914307;29;19927;-61
2023/03/13 06:07:09;;;;;;;;;;;;;;;4.29;nan;98390.50;4950630;28;20440;-60
2023/03/13 06:09:35;;;;;;;;;;;;;;;4.34;nan;98388.84;4942299;28;19930;-60
2023/03/13 06:12:00;;;;;;;;;;;;;;;4.39;nan;98388.84;4953535;28;19926;-62
2023/03/13 06:14:27;;;;;;;;;;;;;;;4.43;nan;98380.38;4964599;28;19926;-61
2023/03/13 06:17:24;;;;;;;;;;;;;;;4.43;nan;98381.22;4965237;28;20720;-60
2023/03/13 06:19:50;;;;;;;;;;;;;;;4.44;nan;98365.16;4970038;28;20097;-60
2023/03/13 06:22:15;;;;;;;;;;;;;;;4.43;nan;98365.16;4970893;28;19930;-60
2023/03/13 06:24:43;;;;;;;;;;;;;;;4.46;nan;98371.06;4980831;28;19932;-60
2023/03/13 06:27:09;;;;;;;;;;;;;;;4.48;nan;98366.00;5003959;28;19925;-61
2023/03/13 06:29:35;;;;;;;;;;;;;;;4.51;nan;98363.47;5004779;28;19929;-60
2023/03/13 06:32:00;;;;;;;;;;;;;;;4.55;nan;98366.00;5005507;28;19931;-60
2023/03/13 06:34:26;;;;;;;;;;;;;;;4.66;nan;98372.78;5005972;28;20307;-60
2023/03/13 06:36:51;;;;;;;;;;;;;;;4.77;nan;98366.88;4999036;28;19932;-60
2023/03/13 06:39:17;;;;;;;;;;;;;;;4.96;nan;98376.19;5012972;28;19955;-62
2023/03/13 06:41:42;;;;;;;;;;;;;;;5.15;nan;98368.50;5025234;28;20006;-60
2023/03/13 06:44:08;;;;;;;;;;;;;;;5.30;nan;98365.97;5030602;28;20015;-60
2023/03/13 06:46:33;;;;;;;;;;;;;;;5.45;nan;98359.13;5025969;28;20275;-60
2023/03/13 06:49:03;;;;;;;;;;;;;;;5.64;nan;98359.91;5024263;28;19951;-61
2023/03/13 06:51:28;;;;;;;;;;;;;;;5.81;nan;98364.94;5029565;28;19920;-60
2023/03/13 06:53:54;;;;;;;;;;;;;;;6.05;nan;98349.56;5034491;28;19947;-59
2023/03/13 06:56:20;;;;;;;;;;;;;;;6.32;nan;98354.47;5023745;28;19936;-59
2023/03/13 06:58:46;;;;;;;;;;;;;;;6.67;nan;98348.28;5028171;28;19929;-59
2023/03/13 07:01:13;;;;;;;;;;;;;;;6.98;nan;98336.13;5026574;28;20404;-56
2023/03/13 07:03:42;;;;;;;;;;;;;;;7.30;nan;98337.47;5026493;28;19921;-59
2023/03/13 07:06:08;;;;;;;;;;;;;;;7.61;nan;98337.13;5025987;28;19935;-59
2023/03/13 07:08:34;;;;;;;;;;;;;;;7.85;nan;98321.50;5026017;28;19924;-60
2023/03/13 07:11:02;;;;;;;;;;;;;;;8.16;nan;98327.91;5023941;28;19990;-60
2023/03/13 07:13:27;;;;;;;;;;;;;;;8.42;nan;98314.78;5041138;28;20020;-59
2023/03/13 07:15:53;;;;;;;;;;;;;;;8.70;nan;98315.16;5024661;28;19921;-59
2023/03/13 07:18:19;;;;;;;;;;;;;;;8.95;nan;98313.06;5027052;28;19925;-60
2023/03/13 07:20:50;;;;;;;;;;;;;;;9.04;nan;98316.28;5031999;28;20038;-59
2023/03/13 07:23:16;;;;;;;;;;;;;;;9.23;nan;98305.72;5026149;28;20320;-59
2023/03/13 07:25:41;;;;;;;;;;;;;;;9.20;nan;98303.22;5026796;28;19925;-60
2023/03/13 07:28:06;;;;;;;;;;;;;;;9.33;nan;98305.53;5023146;28;20359;-59
2023/03/13 07:30:32;;;;;;;;;;;;;;;9.18;nan;98306.66;5024729;28;19929;-61
2023/03/13 07:32:57;;;;;;;;;;;;;;;9.28;nan;98296.25;5027012;28;19998;-59
2023/03/13 07:35:22;;;;;;;;;;;;;;;9.37;nan;98296.06;5024928;28;19925;-61
2023/03/13 07:37:48;;;;;;;;;;;;;;;9.53;nan;98293.16;5025922;28;20404;-61
2023/03/13 07:40:13;;;;;;;;;;;;;;;9.69;nan;98291.13;5024633;28;19933;-60
2023/03/13 07:42:40;;;;;;;;;;;;;;;9.83;nan;98290.84;5025934;28;20395;-61
2023/03/13 07:45:06;;;;;;;;;;;;;;;10.10;nan;98282.53;5027969;28;19927;-61
2023/03/13 07:47:32;;;;;;;;;;;;;;;10.26;nan;98278.81;5025029;28;19925;-60
2023/03/13 07:49:58;;;;;;;;;;;;;;;10.52;nan;98291.00;5025362;28;20011;-60
2023/03/13 07:52:25;;;;;;;;;;;;;;;10.73;nan;98287.91;5027382;28;19925;-61
2023/03/13 07:54:50;;;;;;;;;;;;;;;10.98;nan;98281.25;5024760;28;19931;-58
2023/03/13 07:57:16;;;;;;;;;;;;;;;11.16;nan;98273.97;5024665;28;19921;-59
2023/03/13 07:59:42;;;;;;;;;;;;;;;11.21;nan;98262.66;5023079;28;19982;-59
2023/03/13 08:02:08;;;;;;;;;;;;;;;11.40;nan;98257.88;5026589;28;19978;-61
2023/03/13 08:04:33;;;;;;;;;;;;;;;11.63;nan;98265.75;5026548;28;19921;-60
2023/03/13 08:06:59;;;;;;;;;;;;;;;11.77;nan;98262.81;5023972;28;20349;-61
2023/03/13 08:09:24;;;;;;;;;;;;;;;12.03;nan;98268.00;5023026;28;20480;-61
2023/03/13 08:11:50;;;;;;;;;;;;;;;12.09;nan;98267.00;5025131;28;20279;-59
2023/03/13 08:14:15;;;;;;;;;;;;;;;12.47;nan;98260.63;5024785;28;19931;-61
2023/03/13 08:16:41;;;;;;;;;;;;;;;12.49;nan;98249.41;5022769;28;20470;-60
2023/03/13 08:19:06;;;;;;;;;;;;;;;12.54;nan;98244.97;5024833;28;20065;-61
2023/03/13 08:21:33;;;;;;;;;;;;;;;12.64;nan;98255.78;5015861;28;20883;-61
2023/03/13 08:24:00;;;;;;;;;;;;;;;12.70;nan;98243.53;5032583;28;19920;-59
2023/03/13 08:26:27;;;;;;;;;;;;;;;12.62;nan;98240.41;5026828;28;19982;-60
2023/03/13 08:28:56;;;;;;;;;;;;;;;12.71;nan;98241.81;5027123;28;19917;-59
2023/03/13 08:31:23;;;;;;;;;;;;;;;12.76;nan;98237.38;5042770;28;19975;-60
2023/03/13 08:33:49;;;;;;;;;;;;;;;12.92;nan;98235.09;5026602;28;20055;-60
2023/03/13 08:36:23;;;;;;;;;;;;;;;13.08;nan;98231.09;5026257;28;19926;-61
2023/03/13 08:38:50;;;;;;;;;;;;;;;13.18;nan;98229.91;5032427;28;19921;-60
2023/03/13 08:41:20;;;;;;;;;;;;;;;13.21;nan;98225.50;5028922;28;20031;-61
2023/03/13 08:43:46;;;;;;;;;;;;;;;13.56;nan;98228.50;5029803;28;19995;-60
2023/03/13 08:46:12;;;;;;;;;;;;;;;13.58;nan;98222.38;5026838;28;20441;-60
2023/03/13 08:48:37;;;;;;;;;;;;;;;13.48;nan;98221.06;5028542;28;20398;-60
2023/03/13 08:51:03;;;;;;;;;;;;;;;13.67;nan;98218.63;5030441;28;20164;-60
2023/03/13 08:53:29;;;;;;;;;;;;;;;13.54;nan;98223.41;5030600;28;19924;-61
2023/03/13 08:55:54;;;;;;;;;;;;;;;13.68;nan;98228.03;5032581;28;20024;-60
2023/03/13 08:58:19;;;;;;;;;;;;;;;13.72;nan;98217.56;5030259;28;19978;-60
2023/03/13 09:00:45;;;;;;;;;;;;;;;13.68;nan;98210.84;5031575;28;19925;-60
2023/03/13 09:03:11;;;;;;;;;;;;;;;13.71;nan;98209.88;5031625;28;20529;-60
2023/03/13 09:05:37;;;;;;;;;;;;;;;13.73;nan;98205.53;5032743;28;19924;-61
2023/03/13 09:08:02;;;;;;;;;;;;;;;13.68;nan;98208.28;5027542;28;19921;-59
2023/03/13 09:10:28;;;;;;;;;;;;;;;13.66;nan;98210.06;5029107;28;19933;-60
2023/03/13 09:12:54;;;;;;;;;;;;;;;13.83;nan;98218.91;5038693;28;19927;-60
2023/03/13 09:15:19;;;;;;;;;;;;;;;13.55;nan;98212.22;5030273;28;19921;-59
2023/03/13 09:17:45;;;;;;;;;;;;;;;13.48;nan;98209.94;5026900;28;20376;-61
2023/03/13 09:20:10;;;;;;;;;;;;;;;13.59;nan;98216.34;5027609;28;19920;-60
2023/03/13 09:22:35;;;;;;;;;;;;;;;13.68;nan;98212.59;5029071;28;19929;-61
2023/03/13 09:25:01;;;;;;;;;;;;;;;13.76;nan;98207.97;5029535;28;19948;-60
2023/03/13 09:27:27;;;;;;;;;;;;;;;13.77;nan;98213.97;5029749;28;19924;-59
2023/03/13 09:29:53;;;;;;;;;;;;;;;13.67;nan;98208.31;5029850;28;20384;-60
2023/03/13 09:32:19;;;;;;;;;;;;;;;13.40;nan;98219.69;5029585;28;19978;-61
2023/03/13 09:34:45;;;;;;;;;;;;;;;13.65;nan;98192.09;5028555;28;20559;-60
2023/03/13 09:37:10;;;;;;;;;;;;;;;13.23;nan;98189.41;5036889;28;19920;-60
2023/03/13 09:39:36;;;;;;;;;;;;;;;13.57;nan;98191.56;5028459;28;19920;-58
2023/03/13 09:42:15;;;;;;;;;;;;;;;13.58;nan;98188.91;5024881;28;20006;-59
2023/03/13 09:44:46;;;;;;;;;;;;;;;13.52;nan;98196.03;5029521;28;19920;-59
2023/03/13 09:47:30;;;;;;;;;;;;;;;13.51;nan;98195.19;5025665;28;19947;-60
2023/03/13 09:50:01;;;;;;;;;;;;;;;13.71;nan;98197.84;5026158;28;20004;-59
2023/03/13 09:52:32;;;;;;;;;;;;;;;13.82;nan;98197.44;5030333;28;19925;-59
2023/03/13 09:55:11;;;;;;;;;;;;;;;13.87;nan;98197.28;5029018;28;19928;-59
2023/03/13 09:57:42;;;;;;;;;;;;;;;14.05;nan;98193.94;5029124;28;20014;-60
2023/03/13 10:00:13;;;;;;;;;;;;;;;14.03;nan;98188.88;5029451;28;20022;-59
2023/03/13 10:02:42;;;;;;;;;;;;;;;14.15;nan;98182.38;5029133;28;19984;-60
2023/03/13 10:05:11;;;;;;;;;;;;;;;14.35;nan;98186.72;5045195;28;20358;-60
2023/03/13 10:07:37;;;;;;;;;;;;;;;14.47;nan;98176.75;5027263;28;20004;-60
2023/03/13 10:10:03;;;;;;;;;;;;;;;14.53;nan;98171.34;5024305;28;20229;-58
2023/03/13 10:12:30;;;;;;;;;;;;;;;14.69;nan;98168.09;5027705;28;20615;-59
2023/03/13 10:15:16;;;;;;;;;;;;;;;14.79;nan;98156.50;5029065;28;20023;-59
2023/03/13 10:17:42;;;;;;;;;;;;;;;14.86;nan;98155.31;5026144;28;19931;-59
2023/03/13 10:20:11;;;;;;;;;;;;;;;15.05;nan;98149.28;5024201;28;20038;-59
2023/03/13 10:22:37;;;;;;;;;;;;;;;15.03;nan;98145.94;5027542;28;19928;-59
2023/03/13 10:25:08;;;;;;;;;;;;;;;14.92;nan;98142.16;5023862;28;19920;-63
2023/03/13 10:27:43;;;;;;;;;;;;;;;14.98;nan;98132.38;5027411;28;19925;-61
2023/03/13 10:30:19;;;;;;;;;;;;;;;14.99;nan;98138.38;5027562;28;19925;-61
2023/03/13 10:32:44;;;;;;;;;;;;;;;14.96;nan;98133.38;5028913;28;20257;-61
2023/03/13 10:35:19;;;;;;;;;;;;;;;15.10;nan;98120.69;5028138;28;20343;-60
2023/03/13 10:37:44;;;;;;;;;;;;;;;15.21;nan;98121.03;5027695;28;19925;-62
2023/03/13 10:40:11;;;;;;;;;;;;;;;15.56;nan;98139.25;5028634;28;20455;-63
2023/03/13 10:42:39;;;;;;;;;;;;;;;15.73;nan;98147.06;5028679;28;19921;-64
2023/03/13 10:45:05;;;;;;;;;;;;;;;15.78;nan;98145.09;5026059;28;19920;-65
2023/03/13 10:47:34;;;;;;;;;;;;;;;16.06;nan;98139.41;5025060;28;19951;-64
2023/03/13 10:50:01;;;;;;;;;;;;;;;16.00;nan;98148.31;5028757;28;19993;-64
2023/03/13 10:52:34;;;;;;;;;;;;;;;16.13;nan;98145.97;5037654;28;19920;-64
2023/03/13 10:55:04;;;;;;;;;;;;;;;16.27;nan;98141.78;5027697;28;19921;-67
2023/03/13 10:57:31;;;;;;;;;;;;;;;16.45;nan;98122.75;5025983;28;20007;-61
2023/03/13 10:59:57;;;;;;;;;;;;;;;16.27;nan;98136.63;5030436;28;19927;-62
2023/03/13 11:02:23;;;;;;;;;;;;;;;16.53;nan;98137.91;5030776;28;19963;-59
2023/03/13 11:04:54;;;;;;;;;;;;;;;16.67;nan;98129.47;5027704;28;20012;-60
2023/03/13 11:07:34;;;;;;;;;;;;;;;16.67;nan;98121.69;5023974;28;20147;-59
2023/03/13 11:10:02;;;;;;;;;;;;;;;16.81;nan;98112.28;5025013;28;20212;-60
2023/03/13 11:12:32;;;;;;;;;;;;;;;16.39;nan;98120.47;5024955;28;19964;-61
2023/03/13 11:14:59;;;;;;;;;;;;;;;16.52;nan;98112.94;5027470;28;20032;-60
2023/03/13 11:17:27;;;;;;;;;;;;;;;16.68;nan;98110.41;5024081;28;19925;-59
2023/03/13 11:20:16;;;;;;;;;;;;;;;16.77;nan;98103.00;5025578;28;20422;-61
2023/03/13 11:23:00;;;;;;;;;;;;;;;16.85;nan;98115.53;5025892;28;19932;-60
2023/03/13 11:25:26;;;;;;;;;;;;;;;16.93;nan;98110.78;5028916;28;19921;-59
2023/03/13 11:28:04;;;;;;;;;;;;;;;16.80;nan;98112.38;5026130;28;20431;-58
2023/03/13 11:31:05;;;;;;;;;;;;;;;16.51;nan;98107.84;5024932;28;19925;-59
2023/03/13 11:33:52;;;;;;;;;;;;;;;16.23;nan;98110.97;4998475;28;19921;-59
2023/03/13 11:36:26;;;;;;;;;;;;;;;16.20;nan;98101.63;4984357;28;19920;-60
2023/03/13 11:39:01;;;;;;;;;;;;;;;16.17;nan;98111.25;4997761;28;19979;-60
2023/03/13 11:41:49;;;;;;;;;;;;;;;16.32;nan;98105.34;4997675;28;19991;-60
2023/03/13 11:44:14;;;;;;;;;;;;;;;16.57;nan;98094.56;4997989;28;19931;-60
2023/03/13 11:46:48;;;;;;;;;;;;;;;16.61;nan;98104.72;4992919;28;19921;-60
2023/03/13 11:49:33;;;;;;;;;;;;;;;16.74;nan;98102.34;4994911;28;19921;-59
2023/03/13 11:52:37;;;;;;;;;;;;;;;16.62;nan;98100.38;4978523;28;19972;-60
2023/03/13 11:55:26;;;;;;;;;;;;;;;16.74;nan;98094.56;4922698;29;19930;-60
2023/03/13 11:57:57;;;;;;;;;;;;;;;16.77;nan;98097.00;4924316;29;19923;-59
2023/03/13 12:00:29;;;;;;;;;;;;;;;17.07;nan;98094.53;4916567;29;19927;-60
2023/03/13 12:03:05;;;;;;;;;;;;;;;16.95;nan;98090.84;4910936;29;19989;-59
2023/03/13 12:05:38;;;;;;;;;;;;;;;17.01;nan;98077.59;4923486;29;20026;-59
2023/03/13 12:08:08;;;;;;;;;;;;;;;16.94;nan;98070.19;4966721;28;19987;-60
2023/03/13 12:10:40;;;;;;;;;;;;;;;17.02;nan;98073.22;4983169;28;19921;-60
2023/03/13 12:13:15;;;;;;;;;;;;;;;17.01;nan;98069.81;4985831;28;19925;-60
2023/03/13 12:15:42;;;;;;;;;;;;;;;16.72;nan;98062.75;4988416;28;19952;-60
2023/03/13 12:18:16;;;;;;;;;;;;;;;16.82;nan;98059.59;4986684;28;19928;-58
2023/03/13 12:20:55;;;;;;;;;;;;;;;17.02;nan;98055.09;4988770;28;19929;-59
2023/03/13 12:23:21;;;;;;;;;;;;;;;17.20;nan;98060.13;4987824;28;19922;-58
2023/03/13 12:25:53;;;;;;;;;;;;;;;17.15;nan;98062.13;5007499;28;19928;-58
2023/03/13 12:28:23;;;;;;;;;;;;;;;17.46;nan;98068.22;5028919;28;20007;-59
2023/03/13 12:31:07;;;;;;;;;;;;;;;17.31;nan;98065.53;5027964;28;19944;-58
2023/03/13 12:33:52;;;;;;;;;;;;;;;17.54;nan;98045.28;5029826;28;20211;-59
2023/03/13 12:36:44;;;;;;;;;;;;;;;17.54;nan;98043.53;5031112;28;19982;-59
2023/03/13 12:39:12;;;;;;;;;;;;;;;17.62;nan;98043.13;4956458;28;19968;-60
2023/03/13 12:41:47;;;;;;;;;;;;;;;17.67;nan;98023.78;4954379;28;19922;-59
2023/03/13 12:44:15;;;;;;;;;;;;;;;17.33;nan;98019.66;4956083;28;19965;-60
2023/03/13 12:46:45;;;;;;;;;;;;;;;17.46;nan;98013.78;4937546;28;19929;-59
2023/03/13 12:49:21;;;;;;;;;;;;;;;17.54;nan;98007.25;4954277;28;19973;-60
2023/03/13 12:52:11;;;;;;;;;;;;;;;17.56;nan;98020.97;4956257;28;20372;-60
2023/03/13 12:54:58;;;;;;;;;;;;;;;17.50;nan;98026.47;4940043;28;19976;-59
2023/03/13 12:57:26;;;;;;;;;;;;;;;17.10;nan;98032.22;4953716;28;20238;-58
2023/03/13 12:59:55;;;;;;;;;;;;;;;16.71;nan;98032.59;4952768;28;19944;-59
2023/03/13 13:02:22;;;;;;;;;;;;;;;16.63;nan;98027.00;4962777;28;19945;-61
2023/03/13 13:04:49;;;;;;;;;;;;;;;16.70;nan;98020.59;4939528;28;19926;-61
2023/03/13 13:07:28;;;;;;;;;;;;;;;16.76;nan;98015.91;4955389;28;20007;-60
2023/03/13 13:10:08;;;;;;;;;;;;;;;16.90;nan;98012.56;4951826;28;19938;-54
2023/03/13 13:12:35;;;;;;;;;;;;;;;17.07;nan;98015.06;4951583;28;19961;-57
2023/03/13 13:15:03;;;;;;;;;;;;;;;17.18;nan;98004.97;4944051;28;20271;-58
2023/03/13 13:17:29;;;;;;;;;;;;;;;17.29;nan;98006.94;5030652;28;20394;-59
2023/03/13 13:19:55;;;;;;;;;;;;;;;17.23;nan;98002.09;5029090;28;19924;-58
2023/03/13 13:22:35;;;;;;;;;;;;;;;17.08;nan;97998.63;5018386;28;20289;-58
2023/03/13 13:25:01;;;;;;;;;;;;;;;17.10;nan;97986.41;5028508;28;20011;-58
2023/03/13 13:27:36;;;;;;;;;;;;;;;17.22;nan;97982.31;5029521;28;19921;-59
2023/03/13 13:30:01;;;;;;;;;;;;;;;17.11;nan;97967.34;5029196;28;19936;-57